createdAt,value
2024-02-24T00:00:50.769Z,1.25
2024-02-24T00:03:19.384Z,1.17
2024-02-24T00:05:46.937Z,1.38
2024-02-24T00:08:13.805Z,1.70
2024-02-24T00:10:40.747Z,1.50
2024-02-24T00:13:09.207Z,1.55
2024-02-24T00:15:35.999Z,1.17
2024-02-24T00:18:04.766Z,1.48
2024-02-24T00:20:31.615Z,1.35
2024-02-24T00:22:58.682Z,1.55
2024-02-24T00:25:25.340Z,1.48
2024-02-24T00:27:52.736Z,1.45
2024-02-24T00:30:19.523Z,1.65
2024-02-24T00:32:46.331Z,1.90
2024-02-24T00:35:13.374Z,1.48
2024-02-24T00:37:40.108Z,1.40
2024-02-24T00:40:07.844Z,1.52
2024-02-24T00:42:34.767Z,0.85
2024-02-24T00:45:01.713Z,1.35
2024-02-24T00:47:28.608Z,1.10
2024-02-24T00:49:55.306Z,1.50
2024-02-24T00:52:21.983Z,1.40
2024-02-24T00:54:49.282Z,1.38
2024-02-24T00:57:16.150Z,1.35
2024-02-24T00:59:43.494Z,1.15
2024-02-24T01:02:10.968Z,1.70
2024-02-24T01:04:38.510Z,1.20
2024-02-24T01:07:05.549Z,1.80
2024-02-24T01:09:34.591Z,1.13
2024-02-24T01:12:03.904Z,1.17
2024-02-24T01:14:31.437Z,1.50
2024-02-24T01:16:58.633Z,1.55
2024-02-24T01:19:25.936Z,1.50
2024-02-24T01:21:55.214Z,1.58
2024-02-24T01:24:23.136Z,1.58
2024-02-24T01:26:50.253Z,1.73
2024-02-24T01:29:17.179Z,1.33
2024-02-24T01:31:44.234Z,1.73
2024-02-24T01:34:11.117Z,1.30
2024-02-24T01:36:38.023Z,2.45
2024-02-24T01:39:05.090Z,1.90
2024-02-24T01:41:35.137Z,2.40
2024-02-24T01:44:02.296Z,1.25
2024-02-24T01:46:33.471Z,1.52
2024-02-24T01:49:01.200Z,1.63
2024-02-24T01:51:33.564Z,2.33
2024-02-24T01:54:01.704Z,2.03
2024-02-24T01:56:28.967Z,2.42
2024-02-24T01:58:59.298Z,2.08
2024-02-24T02:01:26.506Z,1.92
2024-02-24T02:03:56.330Z,2.58
2024-02-24T02:06:26.646Z,2.75
2024-02-24T02:08:53.926Z,2.53
2024-02-24T02:11:21.200Z,2.78
2024-02-24T02:13:53.827Z,2.55
2024-02-24T02:16:21.656Z,2.03
2024-02-24T02:18:48.701Z,2.08
2024-02-24T02:21:20.973Z,1.90
2024-02-24T02:23:48.766Z,2.15
2024-02-24T02:26:24.038Z,2.35
2024-02-24T02:28:51.074Z,2.83
2024-02-24T02:31:18.817Z,2.85
2024-02-24T02:33:46.713Z,3.25
2024-02-24T02:36:13.922Z,2.83
2024-02-24T02:38:41.024Z,2.65
2024-02-24T02:41:08.293Z,2.78
2024-02-24T02:43:35.720Z,2.72
2024-02-24T02:46:07.501Z,2.30
2024-02-24T02:48:36.390Z,2.65
2024-02-24T02:51:03.841Z,2.60
2024-02-24T02:53:31.146Z,2.60
2024-02-24T02:55:58.353Z,2.50
2024-02-24T02:58:25.590Z,2.72
2024-02-24T03:00:53.036Z,2.63
2024-02-24T03:03:20.190Z,2.40
2024-02-24T03:05:47.490Z,2.45
2024-02-24T03:08:14.973Z,2.75
2024-02-24T03:10:42.458Z,2.70
2024-02-24T03:13:09.440Z,2.50
2024-02-24T03:15:37.356Z,3.15
2024-02-24T03:18:04.641Z,2.97
2024-02-24T03:20:34.571Z,2.08
2024-02-24T03:23:02.765Z,2.72
2024-02-24T03:25:29.951Z,2.92
2024-02-24T03:28:25.380Z,2.85
2024-02-24T03:31:11.931Z,2.40
2024-02-24T03:33:39.926Z,2.58
2024-02-24T03:36:22.536Z,2.83
2024-02-24T03:38:52.699Z,2.55
2024-02-24T03:45:38.377Z,2.33
2024-02-24T03:48:35.726Z,3.45
2024-02-24T03:52:56.157Z,2.40
2024-02-24T04:07:39.112Z,3.50
2024-02-24T04:10:37.043Z,2.60
2024-02-24T04:44:06.056Z,3.72
2024-02-24T04:46:41.050Z,4.40
2024-02-24T04:49:43.109Z,4.28
2024-02-24T04:52:15.835Z,4.53
2024-02-24T04:55:09.795Z,4.20
2024-02-24T05:08:14.946Z,4.25
2024-02-24T05:10:41.764Z,3.35
2024-02-24T05:13:08.787Z,5.05
2024-02-24T05:15:35.347Z,4.80
2024-02-24T05:18:02.858Z,4.75
2024-02-24T05:20:30.315Z,4.82
2024-02-24T05:22:56.927Z,4.22
2024-02-24T05:25:23.783Z,4.00
2024-02-24T05:27:50.489Z,5.13
2024-02-24T05:30:17.188Z,4.65
2024-02-24T05:32:44.239Z,4.57
2024-02-24T05:35:10.983Z,5.82
2024-02-24T05:37:37.561Z,4.90
2024-02-24T05:40:04.510Z,5.85
2024-02-24T05:42:31.442Z,4.60
2024-02-24T05:44:58.785Z,3.88
2024-02-24T05:47:26.442Z,4.60
2024-02-24T05:49:53.090Z,5.35
2024-02-24T05:52:20.900Z,4.97
2024-02-24T05:54:49.269Z,4.65
2024-02-24T05:57:16.604Z,5.68
2024-02-24T05:59:43.274Z,5.43
2024-02-24T06:02:10.112Z,4.53
2024-02-24T06:04:37.685Z,4.05
2024-02-24T06:07:07.994Z,5.65
2024-02-24T06:09:34.848Z,4.93
2024-02-24T06:12:02.385Z,5.78
2024-02-24T06:14:29.202Z,4.97
2024-02-24T06:16:55.789Z,3.80
2024-02-24T06:19:22.720Z,4.40
2024-02-24T06:21:50.504Z,4.55
2024-02-24T06:24:17.137Z,4.97
2024-02-24T06:26:44.985Z,5.00
2024-02-24T06:29:13.244Z,5.82
2024-02-24T06:31:40.279Z,5.55
2024-02-24T06:34:08.838Z,4.55
2024-02-24T06:36:35.786Z,4.53
2024-02-24T06:39:03.030Z,3.85
2024-02-24T06:41:29.944Z,5.10
2024-02-24T06:43:57.801Z,3.55
2024-02-24T06:46:25.473Z,3.60
2024-02-24T06:48:52.334Z,4.25
2024-02-24T06:51:19.002Z,4.55
2024-02-24T06:53:45.815Z,3.83
2024-02-24T06:56:12.470Z,4.32
2024-02-24T06:58:39.225Z,3.95
2024-02-24T07:01:06.659Z,3.08
2024-02-24T07:03:34.686Z,3.03
2024-02-24T07:06:03.119Z,3.53
2024-02-24T07:08:30.092Z,4.10
2024-02-24T07:10:56.883Z,3.88
2024-02-24T07:13:23.769Z,3.28
2024-02-24T07:15:50.379Z,3.17
2024-02-24T07:18:18.558Z,3.20
2024-02-24T07:20:45.983Z,3.88
2024-02-24T07:23:12.896Z,3.92
2024-02-24T07:25:40.196Z,3.92
2024-02-24T07:28:07.452Z,3.15
2024-02-24T07:30:34.262Z,3.13
2024-02-24T07:33:01.954Z,3.33
2024-02-24T07:35:30.151Z,2.78
2024-02-24T07:37:56.822Z,2.80
2024-02-24T07:40:23.443Z,2.78
2024-02-24T07:42:51.221Z,2.38
2024-02-24T07:45:18.145Z,2.45
2024-02-24T07:47:47.557Z,2.50
2024-02-24T07:50:14.796Z,2.67
2024-02-24T07:52:43.230Z,3.05
2024-02-24T07:55:10.937Z,2.22
2024-02-24T07:57:37.827Z,2.55
2024-02-24T08:00:06.586Z,2.40
2024-02-24T08:02:34.067Z,2.20
2024-02-24T08:05:01.466Z,3.03
2024-02-24T08:07:50.336Z,2.20
2024-02-24T08:10:17.539Z,2.50
2024-02-24T08:12:44.577Z,2.63
2024-02-24T08:15:12.020Z,2.47
2024-02-24T08:17:40.612Z,2.40
2024-02-24T08:20:09.221Z,2.08
2024-02-24T08:22:36.377Z,2.20
2024-02-24T08:25:03.286Z,2.10
2024-02-24T08:27:30.004Z,2.30
2024-02-24T08:29:56.972Z,2.40
2024-02-24T08:32:24.171Z,2.40
2024-02-24T08:34:51.393Z,2.42
2024-02-24T08:37:18.038Z,2.15
2024-02-24T08:39:48.147Z,2.28
2024-02-24T08:42:14.734Z,2.63
2024-02-24T08:44:41.418Z,2.28
2024-02-24T08:47:08.244Z,2.17
2024-02-24T08:49:35.517Z,2.67
2024-02-24T08:52:02.642Z,2.08
2024-02-24T08:54:29.626Z,2.55
2024-02-24T08:56:56.421Z,2.03
2024-02-24T08:59:23.813Z,1.88
2024-02-24T09:01:55.312Z,2.83
2024-02-24T09:04:22.111Z,3.30
2024-02-24T09:06:51.755Z,2.50
2024-02-24T09:09:18.995Z,2.63
2024-02-24T09:11:47.689Z,2.55
2024-02-24T09:14:14.854Z,2.75
2024-02-24T09:16:41.481Z,2.78
2024-02-24T09:19:08.179Z,2.53
2024-02-24T09:21:34.861Z,2.70
2024-02-24T09:24:01.644Z,3.17
2024-02-24T09:26:28.563Z,2.72
2024-02-24T09:28:56.263Z,3.08
2024-02-24T09:31:23.837Z,3.20
2024-02-24T09:33:56.804Z,3.10
2024-02-24T09:36:27.127Z,2.90
2024-02-24T09:38:54.776Z,2.72
2024-02-24T09:41:21.499Z,3.00
2024-02-24T09:43:48.387Z,3.80
2024-02-24T09:46:18.664Z,3.40
2024-02-24T09:48:48.193Z,3.70
2024-02-24T09:51:15.259Z,4.10
2024-02-24T09:53:42.052Z,3.67
2024-02-24T09:56:11.525Z,3.17
2024-02-24T09:58:40.020Z,3.72
2024-02-24T10:01:06.927Z,4.22
2024-02-24T10:03:34.500Z,4.05
2024-02-24T10:06:01.238Z,3.88
2024-02-24T10:08:28.633Z,4.30
2024-02-24T10:10:56.244Z,3.72
2024-02-24T10:13:23.065Z,3.78
2024-02-24T10:15:49.957Z,4.53
2024-02-24T10:18:19.647Z,3.90
2024-02-24T10:20:46.622Z,3.92
2024-02-24T10:23:14.164Z,3.83
2024-02-24T10:25:42.896Z,4.07
2024-02-24T10:28:09.590Z,3.75
2024-02-24T10:30:36.285Z,4.43
2024-02-24T10:33:04.829Z,4.50
2024-02-24T10:35:33.397Z,3.78
2024-02-24T10:38:17.874Z,4.47
2024-02-24T10:40:52.006Z,4.07
2024-02-24T10:43:21.648Z,3.92
2024-02-24T10:45:48.317Z,3.63
2024-02-24T10:48:15.111Z,3.97
2024-02-24T10:50:45.194Z,3.83
2024-02-24T10:53:15.608Z,4.10
2024-02-24T10:55:44.074Z,3.80
2024-02-24T10:58:11.308Z,3.67
2024-02-24T11:00:46.254Z,3.53
2024-02-24T11:03:15.021Z,4.40
2024-02-24T11:05:47.137Z,4.10
2024-02-24T11:08:49.947Z,4.20
2024-02-24T11:11:16.952Z,3.90
2024-02-24T11:13:55.938Z,4.10
2024-02-24T11:16:34.905Z,4.38
2024-02-24T11:19:02.822Z,3.90
2024-02-24T11:22:04.566Z,4.75
2024-02-24T11:24:34.427Z,3.72
2024-02-24T11:27:02.407Z,3.83
2024-02-24T11:29:50.649Z,3.42
2024-02-24T11:32:18.129Z,3.67
2024-02-24T11:34:46.667Z,3.60
2024-02-24T11:37:18.812Z,3.85
2024-02-24T11:39:48.081Z,3.22
2024-02-24T11:42:15.546Z,3.42
2024-02-24T11:44:56.169Z,3.13
2024-02-24T11:47:22.863Z,3.10
2024-02-24T11:49:52.262Z,3.35
2024-02-24T11:52:19.491Z,3.47
2024-02-24T11:54:46.943Z,3.30
2024-02-24T11:57:14.657Z,3.45
2024-02-24T11:59:42.308Z,3.47
2024-02-24T12:02:09.013Z,2.90
2024-02-24T12:04:36.753Z,3.03
2024-02-24T12:07:05.735Z,3.30
2024-02-24T12:09:33.023Z,3.30
2024-02-24T12:12:00.785Z,2.78
2024-02-24T12:14:31.526Z,2.97
2024-02-24T12:16:59.587Z,3.17
2024-02-24T12:19:29.924Z,3.50
2024-02-24T12:21:56.616Z,3.85
2024-02-24T12:24:30.132Z,3.22
2024-02-24T12:27:02.121Z,2.63
2024-02-24T12:29:30.977Z,3.08
2024-02-24T12:31:58.042Z,2.28
2024-02-24T12:34:26.118Z,2.40
2024-02-24T12:36:57.342Z,2.40
2024-02-24T12:39:25.525Z,1.73
2024-02-24T12:41:55.426Z,1.88
2024-02-24T12:44:24.723Z,0.82
2024-02-24T12:46:51.422Z,0.85
2024-02-24T12:49:18.084Z,1.00
2024-02-24T12:51:54.073Z,1.60
2024-02-24T12:54:20.994Z,1.35
2024-02-24T12:56:47.608Z,1.20
2024-02-24T12:59:20.154Z,1.40
2024-02-24T13:01:47.039Z,2.15
2024-02-24T13:04:14.029Z,1.80
2024-02-24T13:06:41.367Z,1.90
2024-02-24T13:09:11.081Z,1.83
2024-02-24T13:11:38.278Z,1.65
2024-02-24T13:14:04.925Z,1.50
2024-02-24T13:16:31.577Z,1.33
2024-02-24T13:18:58.676Z,1.63
2024-02-24T13:21:25.789Z,1.70
2024-02-24T13:23:54.479Z,1.85
2024-02-24T13:26:21.429Z,1.50
2024-02-24T13:28:48.306Z,1.52
2024-02-24T13:31:15.456Z,1.77
2024-02-24T13:33:42.242Z,1.70
2024-02-24T13:36:09.022Z,1.58
2024-02-24T13:38:35.711Z,1.70
2024-02-24T13:41:02.339Z,2.08
2024-02-24T13:43:28.968Z,1.63
2024-02-24T13:45:55.611Z,2.40
2024-02-24T13:48:22.500Z,1.65
2024-02-24T13:50:49.140Z,2.33
2024-02-24T13:53:15.840Z,2.28
2024-02-24T13:55:42.482Z,2.20
2024-02-24T13:58:09.061Z,2.15
2024-02-24T14:00:35.685Z,2.63
2024-02-24T14:03:03.844Z,2.35
2024-02-24T14:05:30.696Z,2.33
2024-02-24T14:07:58.598Z,2.45
2024-02-24T14:10:25.217Z,2.63
2024-02-24T14:12:51.814Z,2.75
2024-02-24T14:15:20.692Z,2.97
2024-02-24T14:17:47.413Z,2.78
2024-02-24T14:20:20.225Z,2.78
2024-02-24T14:22:52.170Z,3.22
2024-02-24T14:25:19.899Z,2.85
2024-02-24T14:27:46.464Z,2.65
2024-02-24T14:30:14.408Z,3.60
2024-02-24T14:32:41.025Z,2.83
2024-02-24T14:35:15.214Z,3.17
2024-02-24T14:37:41.896Z,2.80
2024-02-24T14:40:09.368Z,2.40
2024-02-24T14:42:35.978Z,1.83
2024-02-24T14:45:03.038Z,1.70
2024-02-24T14:47:30.978Z,1.48
2024-02-24T14:49:58.198Z,1.95
2024-02-24T14:52:25.806Z,1.98
2024-02-24T14:54:53.292Z,2.10
2024-02-24T14:57:20.239Z,2.75
2024-02-24T14:59:47.012Z,2.28
2024-02-24T15:02:22.395Z,2.40
2024-02-24T15:04:57.078Z,2.70
2024-02-24T15:07:23.724Z,2.47
2024-02-24T15:09:50.696Z,2.50
2024-02-24T15:12:17.392Z,2.42
2024-02-24T15:14:44.197Z,2.90
2024-02-24T15:17:12.228Z,3.45
2024-02-24T15:19:41.899Z,3.15
2024-02-24T15:22:08.943Z,2.65
2024-02-24T15:24:35.784Z,3.38
2024-02-24T15:27:03.100Z,2.55
2024-02-24T15:29:30.561Z,3.17
2024-02-24T15:31:57.540Z,3.42
2024-02-24T15:34:26.413Z,2.60
2024-02-24T15:36:53.493Z,2.95
2024-02-24T15:39:20.656Z,3.67
2024-02-24T15:41:48.712Z,3.22
2024-02-24T15:44:15.611Z,3.15
2024-02-24T15:46:47.702Z,3.17
2024-02-24T15:49:14.814Z,2.38
2024-02-24T15:51:41.685Z,2.40
2024-02-24T15:54:08.475Z,3.00
2024-02-24T15:56:35.325Z,2.33
2024-02-24T15:59:02.347Z,2.70
2024-02-24T16:01:29.607Z,2.17
2024-02-24T16:03:56.555Z,1.88
2024-02-24T16:08:59.694Z,2.72
2024-02-24T16:11:26.478Z,2.33
2024-02-24T16:13:53.133Z,2.83
2024-02-24T16:16:22.662Z,2.70
2024-02-24T16:18:49.398Z,3.13
2024-02-24T16:21:16.212Z,2.65
2024-02-24T16:23:43.047Z,2.70
2024-02-24T16:26:09.770Z,2.30
2024-02-24T16:28:36.387Z,2.53
2024-02-24T16:31:04.018Z,2.58
2024-02-24T16:33:31.163Z,2.83
2024-02-24T16:35:58.048Z,2.88
2024-02-24T16:38:24.880Z,2.83
2024-02-24T16:40:51.594Z,2.47
2024-02-24T16:43:18.211Z,2.72
2024-02-24T16:45:44.933Z,2.47
2024-02-24T16:48:16.294Z,1.95
2024-02-24T16:53:10.243Z,3.10
2024-02-24T16:55:36.836Z,2.10
2024-02-24T16:58:03.643Z,1.50
2024-02-24T17:00:30.451Z,1.98
2024-02-24T17:02:57.439Z,1.55
2024-02-24T17:05:24.296Z,2.08
2024-02-24T17:07:51.018Z,1.65
2024-02-24T17:10:17.752Z,1.58
2024-02-24T17:12:44.658Z,1.55
2024-02-24T17:15:12.130Z,1.45
2024-02-24T17:17:38.894Z,1.50
2024-02-24T17:20:06.815Z,1.77
2024-02-24T17:22:34.124Z,2.05
2024-02-24T17:25:00.834Z,2.30
2024-02-24T17:27:27.531Z,2.65
2024-02-24T17:29:54.276Z,2.70
2024-02-24T17:32:21.015Z,2.65
2024-02-24T17:34:47.778Z,2.92
2024-02-24T17:37:14.457Z,3.20
2024-02-24T17:39:44.269Z,3.33
2024-02-24T17:42:12.378Z,3.20
2024-02-24T17:44:39.167Z,3.17
2024-02-24T17:47:06.004Z,3.55
2024-02-24T17:49:33.817Z,3.67
2024-02-24T17:52:00.708Z,4.03
2024-02-24T17:54:28.853Z,3.72
2024-02-24T17:56:57.483Z,4.28
2024-02-24T17:59:24.292Z,3.97
2024-02-24T18:01:50.963Z,3.78
2024-02-24T18:04:19.759Z,3.95
2024-02-24T18:06:46.759Z,4.18
2024-02-24T18:09:13.674Z,3.60
2024-02-24T18:11:40.404Z,3.40
2024-02-24T18:14:07.066Z,3.78
2024-02-24T18:16:33.982Z,4.00
2024-02-24T18:19:01.071Z,3.90
2024-02-24T18:21:27.901Z,2.63
2024-02-24T18:23:54.667Z,3.95
2024-02-24T18:26:21.670Z,4.25
2024-02-24T18:28:48.287Z,4.15
2024-02-24T18:31:14.978Z,3.95
2024-02-24T18:33:41.950Z,3.97
2024-02-24T18:36:08.802Z,4.28
2024-02-24T18:38:35.560Z,4.03
2024-02-24T18:41:02.667Z,4.50
2024-02-24T18:43:29.264Z,3.58
2024-02-24T18:45:56.830Z,3.65
2024-02-24T18:48:23.617Z,5.93
2024-02-24T18:50:50.393Z,4.15
2024-02-24T18:53:17.122Z,5.25
2024-02-24T18:55:43.897Z,5.28
2024-02-24T18:58:10.598Z,4.20
2024-02-24T19:00:37.311Z,3.70
2024-02-24T19:03:04.903Z,4.45
2024-02-24T19:05:32.284Z,5.70
2024-02-24T19:07:59.070Z,5.25
2024-02-24T19:10:25.848Z,5.80
2024-02-24T19:12:53.024Z,5.55
2024-02-24T19:15:20.027Z,4.63
2024-02-24T19:17:46.993Z,5.80
2024-02-24T19:20:14.246Z,5.95
2024-02-24T19:22:41.048Z,5.95
2024-02-24T19:25:08.671Z,6.75
2024-02-24T19:27:35.381Z,5.70
2024-02-24T19:30:04.685Z,5.25
2024-02-24T19:32:31.743Z,6.00
2024-02-24T19:34:58.676Z,4.53
2024-02-24T19:37:25.417Z,6.13
2024-02-24T19:39:55.129Z,5.32
2024-02-24T19:42:22.090Z,5.80
2024-02-24T19:44:48.828Z,4.32
2024-02-24T19:47:15.598Z,4.65
2024-02-24T19:49:42.386Z,4.60
2024-02-24T19:52:09.139Z,3.90
2024-02-24T19:54:36.219Z,4.13
2024-02-24T19:57:03.161Z,4.80
2024-02-24T19:59:30.175Z,4.65
2024-02-24T20:02:00.619Z,3.75
2024-02-24T20:04:27.828Z,4.45
2024-02-24T20:06:54.690Z,4.72
2024-02-24T20:09:23.451Z,3.72
2024-02-24T20:11:50.181Z,4.28
2024-02-24T20:14:19.557Z,4.05
2024-02-24T20:16:46.560Z,3.70
2024-02-24T20:19:13.500Z,3.78
2024-02-24T20:21:42.507Z,3.28
2024-02-24T20:24:09.761Z,2.88
2024-02-24T20:26:36.396Z,3.33
2024-02-24T20:29:06.015Z,2.95
2024-02-24T20:31:36.699Z,3.13
2024-02-24T20:34:08.100Z,3.38
2024-02-24T20:36:35.858Z,3.58
2024-02-24T20:39:02.819Z,3.08
2024-02-24T20:41:30.486Z,2.75
2024-02-24T20:43:59.132Z,2.63
2024-02-24T20:46:25.852Z,3.15
2024-02-24T20:48:52.769Z,3.00
2024-02-24T20:51:19.483Z,2.78
2024-02-24T20:53:46.722Z,3.00
2024-02-24T20:56:13.549Z,3.17
2024-02-24T20:58:40.270Z,2.75
2024-02-24T21:01:07.231Z,3.40
2024-02-24T21:03:34.539Z,2.75
2024-02-24T21:06:01.645Z,3.72
2024-02-24T21:08:28.597Z,2.80
2024-02-24T21:10:55.829Z,4.40
2024-02-24T21:13:22.588Z,2.90
2024-02-24T21:15:49.257Z,3.42
2024-02-24T21:18:16.108Z,3.20
2024-02-24T21:20:43.089Z,3.25
2024-02-24T21:23:09.805Z,2.55
2024-02-24T21:25:36.457Z,3.20
2024-02-24T21:28:07.655Z,3.10
2024-02-24T21:30:34.971Z,3.00
2024-02-24T21:33:01.863Z,2.95
2024-02-24T21:35:33.467Z,2.85
2024-02-24T21:38:01.123Z,3.63
2024-02-24T21:40:27.863Z,2.97
2024-02-24T21:42:54.716Z,2.65
2024-02-24T21:45:21.493Z,2.40
2024-02-24T21:47:48.278Z,2.63
2024-02-24T21:50:15.083Z,2.70
2024-02-24T21:52:41.913Z,2.60
2024-02-24T21:55:09.103Z,2.30
2024-02-24T21:57:35.820Z,2.80
2024-02-24T22:00:02.808Z,2.60
2024-02-24T22:02:30.148Z,3.15
2024-02-24T22:04:56.954Z,2.50
2024-02-24T22:07:25.448Z,2.40
2024-02-24T22:09:52.153Z,2.42
2024-02-24T22:12:18.847Z,2.53
2024-02-24T22:14:45.677Z,2.08
2024-02-24T22:17:12.628Z,2.47
2024-02-24T22:19:39.394Z,2.08
2024-02-24T22:22:06.303Z,2.03
2024-02-24T22:24:36.778Z,2.42
2024-02-24T22:27:03.735Z,2.70
2024-02-24T22:29:30.608Z,2.28
2024-02-24T22:31:57.423Z,2.33
2024-02-24T22:34:24.201Z,2.60
2024-02-24T22:36:52.872Z,2.95
2024-02-24T22:39:19.672Z,2.30
2024-02-24T22:41:47.819Z,2.58
2024-02-24T22:44:14.984Z,2.42
2024-02-24T22:46:42.067Z,2.50
2024-02-24T22:49:08.844Z,2.90
2024-02-24T22:51:35.947Z,3.15
2024-02-24T22:54:02.893Z,2.53
2024-02-24T22:56:31.063Z,2.20
2024-02-24T22:59:01.713Z,2.78
2024-02-24T23:01:29.129Z,2.60
2024-02-24T23:03:58.415Z,2.60
2024-02-24T23:06:25.210Z,3.40
2024-02-24T23:08:52.105Z,2.65
2024-02-24T23:11:29.207Z,2.80
2024-02-24T23:14:00.480Z,2.75
2024-02-24T23:16:29.074Z,2.85
2024-02-24T23:18:58.976Z,2.28
2024-02-24T23:21:30.086Z,2.47
2024-02-24T23:23:57.999Z,1.88
2024-02-24T23:26:24.849Z,3.30
2024-02-24T23:28:51.676Z,2.10
2024-02-24T23:31:18.599Z,2.92
2024-02-24T23:33:45.698Z,2.53
2024-02-24T23:36:12.812Z,2.40
2024-02-24T23:38:40.072Z,3.22
2024-02-24T23:41:06.793Z,2.40
2024-02-24T23:43:38.617Z,2.20
2024-02-24T23:46:11.696Z,3.22
2024-02-24T23:48:43.374Z,1.95
2024-02-24T23:51:10.408Z,2.60
2024-02-24T23:53:38.803Z,2.47
2024-02-24T23:56:05.749Z,2.83
2024-02-24T23:58:33.676Z,2.70
